createdAt,value
2023-02-12T00:01:24.708Z,0.14
2023-02-12T00:03:51.866Z,0.05
2023-02-12T00:06:18.945Z,0.22
2023-02-12T00:08:50.854Z,0.11
2023-02-12T00:11:19.411Z,0.09
2023-02-12T00:13:46.678Z,-0.02
2023-02-12T00:16:16.049Z,-0.17
2023-02-12T00:18:42.880Z,-0.12
2023-02-12T00:21:09.664Z,-0.12
2023-02-12T00:23:36.934Z,-0.10
2023-02-12T00:26:10.615Z,-0.14
2023-02-12T00:28:37.780Z,0.00
2023-02-12T00:31:16.020Z,0.12
2023-02-12T00:33:48.279Z,0.10
2023-02-12T00:36:16.878Z,0.20
2023-02-12T00:38:44.591Z,0.06
2023-02-12T00:41:11.422Z,0.18
2023-02-12T00:43:38.556Z,0.13
2023-02-12T00:46:10.975Z,0.13
2023-02-12T00:48:38.052Z,0.11
2023-02-12T00:51:05.255Z,-0.03
2023-02-12T00:53:32.621Z,0.08
2023-02-12T00:55:59.810Z,0.22
2023-02-12T00:58:26.521Z,0.32
2023-02-12T01:00:53.525Z,0.11
2023-02-12T01:03:20.885Z,0.34
2023-02-12T01:05:48.817Z,0.91
2023-02-12T01:08:16.765Z,0.49
2023-02-12T01:10:43.950Z,0.61
2023-02-12T01:13:17.040Z,0.08
2023-02-12T01:15:44.094Z,0.12
2023-02-12T01:18:11.193Z,-0.05
2023-02-12T01:20:40.113Z,0.09
2023-02-12T01:23:07.245Z,0.01
2023-02-12T01:25:34.361Z,0.01
2023-02-12T01:28:01.502Z,0.26
2023-02-12T01:30:34.505Z,-0.01
2023-02-12T01:33:01.573Z,0.12
2023-02-12T01:35:28.533Z,-0.07
2023-02-12T01:37:58.115Z,-0.14
2023-02-12T01:40:30.613Z,0.02
2023-02-12T01:43:01.059Z,0.00
2023-02-12T01:45:36.895Z,-0.12
2023-02-12T01:48:04.037Z,-0.30
2023-02-12T01:50:31.335Z,-0.34
2023-02-12T01:53:01.019Z,-0.24
2023-02-12T01:55:31.594Z,-0.32
2023-02-12T01:57:58.535Z,-0.19
2023-02-12T02:00:30.894Z,-0.36
2023-02-12T02:02:58.770Z,-0.19
2023-02-12T02:05:34.150Z,-0.18
2023-02-12T02:08:10.393Z,-0.10
2023-02-12T02:10:37.499Z,-0.04
2023-02-12T02:13:04.579Z,-0.39
2023-02-12T02:15:36.439Z,-0.38
2023-02-12T02:18:07.854Z,-0.31
2023-02-12T02:20:43.978Z,-0.20
2023-02-12T02:23:37.851Z,-0.28
2023-02-12T02:26:37.721Z,-0.33
2023-02-12T02:29:30.117Z,-0.22
2023-02-12T02:32:20.877Z,-0.52
2023-02-12T02:34:58.616Z,-0.51
2023-02-12T02:37:49.251Z,-0.40
2023-02-12T02:40:27.359Z,-0.38
2023-02-12T02:43:15.946Z,-0.19
2023-02-12T02:45:50.014Z,-0.24
2023-02-12T02:48:24.654Z,-0.23
2023-02-12T02:50:55.785Z,-0.44
2023-02-12T02:53:45.990Z,-0.31
2023-02-12T02:56:20.425Z,-0.49
2023-02-12T02:58:59.385Z,-0.34
2023-02-12T03:01:38.391Z,-0.53
2023-02-12T03:04:10.185Z,-0.44
2023-02-12T03:07:10.514Z,-0.69
2023-02-12T03:09:40.739Z,-0.59
2023-02-12T03:12:14.400Z,-0.66
2023-02-12T03:14:44.896Z,-0.65
2023-02-12T03:17:26.487Z,-0.62
2023-02-12T03:19:59.007Z,-0.61
2023-02-12T03:22:29.072Z,-0.57
2023-02-12T03:25:18.594Z,-0.55
2023-02-12T03:28:09.892Z,-0.49
2023-02-12T03:31:11.212Z,-0.48
2023-02-12T03:34:09.754Z,-0.71
2023-02-12T03:36:55.634Z,-0.62
2023-02-12T03:39:37.158Z,-0.49
2023-02-12T03:42:42.294Z,-0.15
2023-02-12T03:45:55.849Z,-0.47
2023-02-12T03:48:23.813Z,-0.34
2023-02-12T03:51:10.185Z,-0.32
2023-02-12T03:53:42.871Z,-0.16
2023-02-12T03:56:47.511Z,-0.15
2023-02-12T03:59:14.997Z,0.02
2023-02-12T04:01:46.862Z,0.64
2023-02-12T04:04:14.634Z,0.02
2023-02-12T04:06:41.585Z,-0.28
2023-02-12T04:09:09.666Z,-0.35
2023-02-12T04:12:15.837Z,-0.30
2023-02-12T04:15:33.720Z,-0.14
2023-02-12T04:18:10.362Z,0.29
2023-02-12T04:21:31.545Z,-0.23
2023-02-12T04:24:30.122Z,-0.21
2023-02-12T04:27:31.008Z,-0.42
2023-02-12T04:30:15.799Z,-0.37
2023-02-12T04:32:48.778Z,-0.43
2023-02-12T04:35:48.818Z,-0.45
2023-02-12T04:38:40.548Z,-0.56
2023-02-12T04:41:07.771Z,-0.46
2023-02-12T04:43:37.538Z,-0.36
2023-02-12T04:46:05.918Z,-0.41
2023-02-12T04:48:33.033Z,-0.63
2023-02-12T04:51:00.070Z,-0.77
2023-02-12T04:53:27.555Z,-0.75
2023-02-12T04:55:54.893Z,-0.65
2023-02-12T04:58:22.197Z,-0.78
2023-02-12T05:00:53.976Z,-0.81
2023-02-12T05:03:23.550Z,-0.85
2023-02-12T05:05:53.390Z,-1.04
2023-02-12T05:08:20.494Z,-1.11
2023-02-12T05:10:47.246Z,-0.98
2023-02-12T05:13:16.723Z,-1.00
2023-02-12T05:15:43.585Z,-0.76
2023-02-12T05:18:11.158Z,-0.76
2023-02-12T05:20:39.076Z,-0.77
2023-02-12T05:23:06.757Z,-0.95
2023-02-12T05:25:33.810Z,-0.92
2023-02-12T05:28:00.605Z,-0.85
2023-02-12T05:30:28.959Z,-0.96
2023-02-12T05:32:56.250Z,-1.12
2023-02-12T05:35:25.763Z,-1.13
2023-02-12T05:37:52.874Z,-1.06
2023-02-12T05:40:20.118Z,-0.99
2023-02-12T05:43:11.383Z,-1.00
2023-02-12T05:45:38.499Z,-0.94
2023-02-12T05:48:10.543Z,-0.91
2023-02-12T05:50:38.502Z,-0.94
2023-02-12T05:53:05.554Z,-1.03
2023-02-12T05:55:32.587Z,-1.04
2023-02-12T05:58:02.160Z,-1.01
2023-02-12T06:00:32.051Z,-1.00
2023-02-12T06:02:59.230Z,-1.14
2023-02-12T06:05:26.407Z,-1.07
2023-02-12T06:07:53.770Z,-1.13
2023-02-12T06:10:21.246Z,-1.17
2023-02-12T06:12:53.670Z,-1.22
2023-02-12T06:15:25.595Z,-1.22
2023-02-12T06:17:52.557Z,-1.41
2023-02-12T06:20:19.464Z,-1.33
2023-02-12T06:22:46.537Z,-1.23
2023-02-12T06:25:13.658Z,-1.27
2023-02-12T06:27:40.686Z,-1.28
2023-02-12T06:30:09.442Z,-1.28
2023-02-12T06:32:36.841Z,-1.26
2023-02-12T06:35:04.112Z,-1.31
2023-02-12T06:37:32.407Z,-1.21
2023-02-12T06:39:59.462Z,-1.17
2023-02-12T06:42:29.211Z,-1.23
2023-02-12T06:44:55.980Z,-1.16
2023-02-12T06:47:23.112Z,-1.17
2023-02-12T06:49:50.123Z,-1.15
2023-02-12T06:52:17.175Z,-1.24
2023-02-12T06:54:44.260Z,-1.21
2023-02-12T06:57:15.916Z,-1.17
2023-02-12T06:59:44.135Z,-1.19
2023-02-12T07:02:11.883Z,-1.23
2023-02-12T07:04:40.690Z,-1.23
2023-02-12T07:07:07.697Z,-1.09
2023-02-12T07:09:34.808Z,-0.94
2023-02-12T07:12:01.935Z,-0.85
2023-02-12T07:14:28.631Z,-0.82
2023-02-12T07:16:57.292Z,-0.75
2023-02-12T07:19:24.814Z,-0.70
2023-02-12T07:21:54.303Z,-0.58
2023-02-12T07:24:22.047Z,-0.59
2023-02-12T07:26:52.446Z,-0.51
2023-02-12T07:29:19.134Z,-0.41
2023-02-12T07:31:47.267Z,-0.43
2023-02-12T07:34:14.084Z,-0.47
2023-02-12T07:36:40.821Z,-0.17
2023-02-12T07:39:07.917Z,-0.17
2023-02-12T07:41:35.559Z,0.00
2023-02-12T07:44:07.059Z,0.28
2023-02-12T07:46:35.811Z,0.46
2023-02-12T07:49:08.167Z,0.42
2023-02-12T07:51:34.916Z,0.59
2023-02-12T07:54:02.607Z,1.22
2023-02-12T07:56:30.861Z,2.25
2023-02-12T07:58:58.657Z,1.76
2023-02-12T08:01:28.540Z,1.47
2023-02-12T08:04:03.407Z,2.31
2023-02-12T08:06:31.483Z,2.73
2023-02-12T08:08:59.945Z,3.14
2023-02-12T08:11:29.693Z,2.39
2023-02-12T08:13:57.877Z,2.69
2023-02-12T08:16:27.060Z,2.70
2023-02-12T08:19:02.325Z,3.62
2023-02-12T08:21:34.511Z,3.63
2023-02-12T08:24:01.471Z,4.10
2023-02-12T08:26:36.755Z,4.62
2023-02-12T08:29:33.838Z,5.03
2023-02-12T08:32:01.852Z,5.16
2023-02-12T08:34:30.882Z,5.14
2023-02-12T08:36:57.730Z,4.97
2023-02-12T08:39:25.296Z,4.82
2023-02-12T08:41:53.927Z,5.56
2023-02-12T08:44:20.736Z,4.97
2023-02-12T08:46:48.849Z,4.72
2023-02-12T08:49:22.986Z,5.30
2023-02-12T08:51:54.002Z,5.85
2023-02-12T08:54:22.403Z,6.44
2023-02-12T08:56:49.472Z,6.62
2023-02-12T08:59:22.262Z,5.90
2023-02-12T09:01:58.928Z,6.25
2023-02-12T09:04:27.052Z,6.30
2023-02-12T09:06:53.785Z,6.46
2023-02-12T09:09:21.507Z,6.83
2023-02-12T09:11:48.323Z,6.63
2023-02-12T09:14:17.579Z,5.31
2023-02-12T09:16:45.465Z,6.06
2023-02-12T09:19:14.344Z,6.20
2023-02-12T09:21:41.745Z,6.65
2023-02-12T09:24:08.773Z,6.16
2023-02-12T09:26:35.886Z,6.45
2023-02-12T09:29:03.343Z,6.04
2023-02-12T09:31:33.387Z,5.91
2023-02-12T09:34:02.404Z,5.52
2023-02-12T09:36:32.056Z,5.48
2023-02-12T09:38:59.618Z,5.74
2023-02-12T09:41:44.826Z,5.64
2023-02-12T09:44:33.566Z,6.09
2023-02-12T09:47:03.233Z,6.42
2023-02-12T09:50:01.890Z,6.44
2023-02-12T09:52:28.790Z,6.16
2023-02-12T09:54:55.936Z,6.73
2023-02-12T09:57:25.492Z,6.17
2023-02-12T09:59:55.634Z,6.29
2023-02-12T10:02:23.441Z,6.66
2023-02-12T10:05:01.088Z,6.77
2023-02-12T10:07:43.422Z,5.99
2023-02-12T10:10:27.833Z,6.31
2023-02-12T10:13:00.139Z,6.43
2023-02-12T10:15:37.727Z,6.19
2023-02-12T10:18:34.890Z,6.31
2023-02-12T10:21:33.483Z,6.16
2023-02-12T10:24:12.148Z,6.55
2023-02-12T10:26:43.646Z,6.91
2023-02-12T10:29:25.003Z,7.07
2023-02-12T10:32:00.664Z,6.08
2023-02-12T10:34:32.463Z,6.35
2023-02-12T10:37:34.632Z,6.67
2023-02-12T10:40:29.250Z,7.33
2023-02-12T10:42:56.376Z,6.78
2023-02-12T10:45:32.322Z,7.18
2023-02-12T10:48:20.849Z,7.03
2023-02-12T10:50:50.560Z,7.02
2023-02-12T10:53:22.794Z,7.45
2023-02-12T10:56:12.161Z,7.35
2023-02-12T10:58:57.936Z,7.57
2023-02-12T11:01:33.563Z,7.36
2023-02-12T11:04:01.417Z,7.61
2023-02-12T11:06:30.117Z,7.53
2023-02-12T11:08:58.372Z,7.22
2023-02-12T11:11:27.691Z,7.57
2023-02-12T11:14:04.836Z,7.29
2023-02-12T11:16:36.806Z,7.71
2023-02-12T11:19:05.586Z,6.77
2023-02-12T11:21:33.071Z,8.03
2023-02-12T11:24:29.468Z,7.98
2023-02-12T11:27:24.959Z,7.26
2023-02-12T11:30:17.983Z,7.80
2023-02-12T11:32:45.226Z,7.84
2023-02-12T11:35:16.771Z,8.30
2023-02-12T11:37:44.518Z,8.28
2023-02-12T11:40:17.018Z,8.15
2023-02-12T11:42:46.141Z,8.22
2023-02-12T11:45:17.464Z,7.30
2023-02-12T11:47:44.515Z,7.59
2023-02-12T11:50:26.105Z,8.04
2023-02-12T11:52:54.482Z,7.72
2023-02-12T11:55:23.744Z,7.83
2023-02-12T11:58:05.773Z,7.73
2023-02-12T12:00:37.840Z,7.26
2023-02-12T12:03:45.625Z,7.50
2023-02-12T12:06:29.837Z,7.74
2023-02-12T12:09:23.527Z,8.21
2023-02-12T12:12:29.122Z,7.10
2023-02-12T12:15:10.642Z,7.96
2023-02-12T12:17:41.333Z,7.98
2023-02-12T12:20:13.725Z,8.37
2023-02-12T12:23:03.414Z,8.47
2023-02-12T12:25:46.380Z,9.10
2023-02-12T12:28:50.792Z,10.01
2023-02-12T12:31:39.363Z,9.56
2023-02-12T12:34:30.234Z,8.61
2023-02-12T12:37:06.130Z,8.74
2023-02-12T12:39:40.708Z,9.46
2023-02-12T12:42:30.486Z,10.07
2023-02-12T12:45:20.729Z,9.47
2023-02-12T12:48:26.195Z,9.33
2023-02-12T12:51:20.854Z,9.17
2023-02-12T12:53:51.925Z,9.05
2023-02-12T12:56:50.445Z,8.64
2023-02-12T12:59:26.294Z,8.44
2023-02-12T13:01:59.852Z,9.08
2023-02-12T13:04:52.638Z,8.67
2023-02-12T13:07:40.629Z,9.05
2023-02-12T13:10:26.468Z,9.29
2023-02-12T13:13:05.446Z,9.30
2023-02-12T13:16:02.558Z,9.68
2023-02-12T13:18:51.156Z,9.52
2023-02-12T13:21:45.706Z,9.16
2023-02-12T13:24:29.337Z,8.96
2023-02-12T13:26:58.239Z,8.76
2023-02-12T13:29:28.044Z,9.27
2023-02-12T13:32:00.628Z,8.99
2023-02-12T13:34:27.529Z,9.60
2023-02-12T13:36:54.269Z,9.37
2023-02-12T13:39:38.090Z,9.95
2023-02-12T13:42:07.666Z,9.86
2023-02-12T13:44:37.002Z,10.20
2023-02-12T13:47:14.154Z,10.21
2023-02-12T13:50:13.056Z,9.85
2023-02-12T13:53:07.993Z,9.50
2023-02-12T13:56:03.974Z,9.82
2023-02-12T13:58:38.145Z,9.77
2023-02-12T14:01:04.990Z,9.79
2023-02-12T14:03:31.775Z,10.35
2023-02-12T14:06:16.863Z,9.45
2023-02-12T14:09:09.027Z,9.52
2023-02-12T14:11:51.805Z,9.72
2023-02-12T14:14:46.833Z,10.31
2023-02-12T14:18:15.151Z,9.88
2023-02-12T14:20:42.300Z,10.45
2023-02-12T14:23:28.512Z,9.86
2023-02-12T14:26:16.854Z,10.03
2023-02-12T14:29:06.844Z,9.63
2023-02-12T14:31:37.844Z,10.30
2023-02-12T14:34:07.784Z,10.47
2023-02-12T14:36:34.440Z,10.79
2023-02-12T14:39:19.959Z,10.51
2023-02-12T14:41:53.650Z,10.88
2023-02-12T14:44:23.182Z,10.72
2023-02-12T14:46:54.677Z,11.12
2023-02-12T14:49:52.098Z,11.21
2023-02-12T14:52:20.413Z,11.37
2023-02-12T14:54:51.020Z,10.84
2023-02-12T14:57:37.836Z,10.96
2023-02-12T15:00:16.661Z,10.35
2023-02-12T15:02:51.936Z,9.63
2023-02-12T15:05:22.485Z,10.15
2023-02-12T15:07:55.414Z,9.93
2023-02-12T15:10:24.186Z,10.79
2023-02-12T15:12:54.854Z,10.54
2023-02-12T15:15:31.387Z,10.25
2023-02-12T15:18:11.932Z,10.71
2023-02-12T15:20:48.920Z,10.67
2023-02-12T15:23:33.272Z,10.69
2023-02-12T15:26:01.785Z,11.04
2023-02-12T15:28:30.906Z,10.37
2023-02-12T15:30:58.123Z,10.52
2023-02-12T15:33:27.941Z,10.74
2023-02-12T15:35:54.960Z,10.08
2023-02-12T15:38:33.304Z,10.03
2023-02-12T15:41:01.120Z,10.60
2023-02-12T15:43:30.522Z,10.36
2023-02-12T15:45:57.552Z,10.35
2023-02-12T15:48:35.547Z,10.07
2023-02-12T15:51:33.489Z,10.67
2023-02-12T15:54:00.380Z,10.49
2023-02-12T15:56:29.911Z,10.31
2023-02-12T15:59:17.101Z,9.98
2023-02-12T16:02:02.870Z,10.29
2023-02-12T16:04:31.482Z,10.36
2023-02-12T16:06:59.145Z,9.84
2023-02-12T16:09:37.847Z,9.50
2023-02-12T16:12:07.592Z,8.79
2023-02-12T16:14:44.836Z,9.01
2023-02-12T16:17:37.727Z,8.96
2023-02-12T16:20:15.822Z,9.36
2023-02-12T16:22:44.696Z,9.48
2023-02-12T16:25:38.863Z,9.90
2023-02-12T16:28:16.998Z,9.78
2023-02-12T16:30:44.203Z,8.81
2023-02-12T16:36:32.610Z,8.14
2023-02-12T16:39:06.216Z,7.73
2023-02-12T16:41:54.816Z,7.45
2023-02-12T16:44:26.687Z,6.74
2023-02-12T16:46:55.468Z,7.39
2023-02-12T16:49:23.564Z,7.71
2023-02-12T16:51:50.401Z,6.42
2023-02-12T16:54:46.395Z,5.85
2023-02-12T16:57:13.544Z,5.59
2023-02-12T16:59:42.434Z,5.41
2023-02-12T17:02:11.860Z,4.97
2023-02-12T17:04:38.581Z,5.03
2023-02-12T17:07:16.846Z,4.99
2023-02-12T17:09:43.536Z,4.84
2023-02-12T17:12:10.550Z,4.62
2023-02-12T17:14:37.580Z,4.60
2023-02-12T17:17:04.620Z,4.60
2023-02-12T17:19:33.013Z,4.67
2023-02-12T17:21:59.705Z,4.38
2023-02-12T17:24:33.524Z,4.37
2023-02-12T17:27:01.509Z,4.20
2023-02-12T17:29:29.214Z,4.19
2023-02-12T17:31:56.157Z,4.18
2023-02-12T17:34:23.507Z,4.25
2023-02-12T17:36:54.735Z,4.25
2023-02-12T17:39:22.031Z,4.11
2023-02-12T17:41:49.695Z,4.07
2023-02-12T17:44:17.397Z,4.01
2023-02-12T17:46:44.122Z,3.93
2023-02-12T17:49:13.621Z,3.92
2023-02-12T17:51:48.050Z,3.88
2023-02-12T17:54:15.219Z,3.78
2023-02-12T17:56:41.938Z,4.02
2023-02-12T17:59:13.667Z,3.77
2023-02-12T18:01:40.748Z,4.08
2023-02-12T18:04:07.780Z,3.72
2023-02-12T18:06:34.878Z,4.36
2023-02-12T18:09:03.093Z,4.22
2023-02-12T18:11:29.914Z,4.50
2023-02-12T18:13:57.882Z,3.80
2023-02-12T18:16:26.217Z,3.94
2023-02-12T18:18:53.437Z,3.83
2023-02-12T18:21:20.848Z,3.33
2023-02-12T18:23:48.160Z,3.76
2023-02-12T18:26:16.283Z,3.76
2023-02-12T18:28:45.122Z,3.65
2023-02-12T18:31:11.964Z,3.78
2023-02-12T18:33:39.807Z,4.27
2023-02-12T18:36:11.391Z,4.13
2023-02-12T18:38:39.391Z,4.59
2023-02-12T18:41:21.927Z,4.38
2023-02-12T18:43:51.881Z,4.32
2023-02-12T18:46:20.486Z,4.53
2023-02-12T18:48:48.477Z,3.77
2023-02-12T18:51:19.930Z,3.69
2023-02-12T18:53:47.054Z,3.65
2023-02-12T18:56:16.826Z,3.14
2023-02-12T18:58:43.534Z,3.01
2023-02-12T19:01:18.384Z,3.29
2023-02-12T19:03:45.800Z,3.80
2023-02-12T19:06:12.573Z,3.03
2023-02-12T19:08:39.738Z,3.10
2023-02-12T19:11:10.523Z,2.67
2023-02-12T19:13:38.916Z,2.88
2023-02-12T19:16:14.566Z,2.69
2023-02-12T19:18:44.535Z,2.73
2023-02-12T19:21:16.886Z,2.79
2023-02-12T19:23:44.106Z,3.24
2023-02-12T19:26:12.958Z,2.54
2023-02-12T19:28:40.361Z,2.47
2023-02-12T19:31:22.411Z,2.59
2023-02-12T19:33:50.094Z,2.41
2023-02-12T19:36:18.528Z,2.47
2023-02-12T19:38:46.366Z,2.34
2023-02-12T19:41:15.922Z,2.47
2023-02-12T19:43:42.736Z,2.32
2023-02-12T19:46:14.598Z,2.33
2023-02-12T19:48:41.329Z,2.40
2023-02-12T19:51:17.005Z,2.53
2023-02-12T19:53:44.307Z,2.45
2023-02-12T19:56:11.388Z,2.45
2023-02-12T19:58:38.484Z,2.33
2023-02-12T20:01:09.703Z,2.33
2023-02-12T20:03:38.161Z,2.21
2023-02-12T20:06:14.520Z,2.18
2023-02-12T20:08:41.595Z,2.14
2023-02-12T20:11:14.424Z,2.14
2023-02-12T20:13:42.479Z,2.10
2023-02-12T20:16:13.959Z,1.93
2023-02-12T20:18:40.649Z,1.99
2023-02-12T20:21:11.357Z,2.00
2023-02-12T20:23:49.973Z,1.88
2023-02-12T20:26:20.121Z,1.92
2023-02-12T20:28:47.592Z,1.89
2023-02-12T20:31:16.341Z,1.89
2023-02-12T20:33:54.415Z,1.91
2023-02-12T20:36:28.401Z,1.79
2023-02-12T20:39:00.604Z,1.75
2023-02-12T20:41:33.922Z,1.73
2023-02-12T20:44:04.150Z,1.64
2023-02-12T20:46:30.883Z,1.62
2023-02-12T20:48:57.606Z,1.66
2023-02-12T20:51:26.260Z,1.61
2023-02-12T20:53:53.314Z,1.57
2023-02-12T20:56:22.034Z,1.54
2023-02-12T20:58:48.854Z,1.52
2023-02-12T21:01:17.735Z,1.64
2023-02-12T21:03:45.078Z,1.71
2023-02-12T21:06:12.254Z,1.66
2023-02-12T21:08:40.030Z,1.62
2023-02-12T21:11:12.169Z,1.48
2023-02-12T21:13:39.427Z,1.43
2023-02-12T21:16:08.325Z,1.40
2023-02-12T21:18:35.676Z,1.32
2023-02-12T21:21:05.279Z,1.39
2023-02-12T21:23:33.090Z,1.37
2023-02-12T21:26:13.107Z,1.44
2023-02-12T21:28:41.107Z,1.38
2023-02-12T21:31:15.754Z,1.43
2023-02-12T21:33:43.120Z,1.38
2023-02-12T21:36:15.126Z,1.30
2023-02-12T21:38:44.479Z,1.17
2023-02-12T21:41:40.920Z,1.20
2023-02-12T21:44:11.445Z,1.12
2023-02-12T21:46:38.200Z,1.14
2023-02-12T21:49:07.327Z,1.13
2023-02-12T21:51:36.590Z,1.14
2023-02-12T21:54:08.025Z,1.04
2023-02-12T21:56:40.907Z,1.07
2023-02-12T21:59:07.821Z,1.05
2023-02-12T22:01:35.590Z,0.94
2023-02-12T22:04:03.876Z,0.92
2023-02-12T22:06:30.707Z,0.95
2023-02-12T22:09:04.602Z,0.96
2023-02-12T22:11:31.686Z,0.99
2023-02-12T22:13:58.764Z,0.99
2023-02-12T22:16:28.445Z,0.92
2023-02-12T22:18:56.836Z,0.86
2023-02-12T22:21:24.140Z,0.84
2023-02-12T22:23:52.926Z,0.80
2023-02-12T22:26:24.232Z,0.86
2023-02-12T22:28:56.043Z,0.83
2023-02-12T22:31:28.206Z,0.80
2023-02-12T22:33:57.855Z,0.80
2023-02-12T22:36:24.695Z,0.81
2023-02-12T22:38:52.595Z,0.80
2023-02-12T22:41:19.471Z,0.77
2023-02-12T22:43:47.562Z,0.87
2023-02-12T22:46:14.494Z,0.86
2023-02-12T22:48:42.273Z,0.83
2023-02-12T22:51:31.307Z,0.75
2023-02-12T22:53:58.341Z,0.74
2023-02-12T22:56:25.505Z,0.81
2023-02-12T22:58:59.691Z,0.78
2023-02-12T23:03:53.796Z,0.70
2023-02-12T23:06:22.454Z,0.65
2023-02-12T23:08:56.626Z,0.76
2023-02-12T23:11:26.660Z,0.60
2023-02-12T23:13:53.910Z,0.71
2023-02-12T23:16:21.062Z,0.63
2023-02-12T23:18:48.142Z,0.47
2023-02-12T23:21:15.123Z,0.47
2023-02-12T23:23:41.898Z,0.59
2023-02-12T23:26:14.156Z,0.58
2023-02-12T23:28:41.956Z,0.59
2023-02-12T23:31:09.145Z,0.57
2023-02-12T23:33:38.775Z,0.56
2023-02-12T23:36:06.728Z,0.63
2023-02-12T23:38:33.474Z,0.53
2023-02-12T23:41:00.492Z,0.53
2023-02-12T23:43:28.573Z,0.54
2023-02-12T23:45:55.613Z,0.55
2023-02-12T23:48:22.402Z,0.52
2023-02-12T23:50:50.028Z,0.50
2023-02-12T23:53:16.989Z,0.47
2023-02-12T23:55:43.755Z,0.48
2023-02-12T23:58:10.746Z,0.43
